Time;durP1;ratioP1;P1;durP2;ratioP2;P2;SDS_P1;SDS_P2;PMS_P1;PMS_P2;Temp;Humidity;BMP_temperature;BMP_pressure;BME280_temperature;BME280_humidity;BME280_pressure;Samples;Min_cycle;Max_cycle;Signal;HPM_P1;HPM_P2
2020/12/07 00:02:14;;;;;;;7.28;4.82;;;;;;;;;;5097685;28;20369;-65
2020/12/07 00:04:40;;;;;;;5.07;2.30;;;;;;;;;;5098239;28;20029;-67
2020/12/07 00:07:06;;;;;;;4.40;2.35;;;;;;;;;;5097914;28;20024;-64
2020/12/07 00:09:32;;;;;;;4.13;2.53;;;;;;;;;;5097164;28;20480;-66
2020/12/07 00:11:58;;;;;;;3.97;1.92;;;;;;;;;;5097530;28;20020;-66
2020/12/07 00:14:24;;;;;;;5.60;3.38;;;;;;;;;;5097674;28;20030;-67
2020/12/07 00:16:50;;;;;;;3.65;2.60;;;;;;;;;;5096887;28;20008;-66
2020/12/07 00:19:16;;;;;;;3.03;2.53;;;;;;;;;;5097388;28;20020;-64
2020/12/07 00:21:43;;;;;;;3.42;1.90;;;;;;;;;;5097413;28;20044;-66
2020/12/07 00:24:09;;;;;;;2.20;1.92;;;;;;;;;;5097096;28;20472;-65
2020/12/07 00:26:35;;;;;;;3.60;2.42;;;;;;;;;;5097236;28;20039;-65
2020/12/07 00:29:01;;;;;;;6.75;2.95;;;;;;;;;;5095854;28;20019;-65
2020/12/07 00:31:27;;;;;;;2.65;1.52;;;;;;;;;;5096607;28;20032;-67
2020/12/07 00:34:02;;;;;;;5.20;2.15;;;;;;;;;;5097020;28;20337;-65
2020/12/07 00:36:28;;;;;;;4.78;2.20;;;;;;;;;;5096837;28;20023;-64
2020/12/07 00:38:55;;;;;;;2.35;1.90;;;;;;;;;;5096707;28;20020;-68
2020/12/07 00:41:21;;;;;;;4.05;1.88;;;;;;;;;;5096817;28;20012;-64
2020/12/07 00:43:47;;;;;;;3.97;2.47;;;;;;;;;;5096277;28;20472;-65
2020/12/07 00:46:14;;;;;;;2.72;1.80;;;;;;;;;;5096621;28;20016;-65
2020/12/07 00:48:40;;;;;;;2.85;2.25;;;;;;;;;;5096296;28;20099;-67
2020/12/07 00:51:06;;;;;;;4.60;1.90;;;;;;;;;;5096731;28;20024;-65
2020/12/07 00:53:33;;;;;;;6.68;1.98;;;;;;;;;;5096765;28;20023;-66
2020/12/07 00:55:59;;;;;;;2.63;1.75;;;;;;;;;;5095918;28;20073;-66
2020/12/07 00:58:25;;;;;;;3.88;1.83;;;;;;;;;;5096709;28;20095;-67
2020/12/07 01:00:51;;;;;;;4.00;2.33;;;;;;;;;;5096707;28;20474;-66
2020/12/07 01:03:17;;;;;;;4.05;2.53;;;;;;;;;;5095137;28;20024;-66
2020/12/07 01:05:43;;;;;;;3.22;2.10;;;;;;;;;;5094939;28;20038;-67
2020/12/07 01:08:09;;;;;;;3.20;2.33;;;;;;;;;;5096126;28;20031;-68
2020/12/07 01:10:36;;;;;;;4.43;2.40;;;;;;;;;;5096452;28;20077;-67
2020/12/07 01:13:03;;;;;;;5.03;1.95;;;;;;;;;;5094600;28;20023;-66
2020/12/07 01:15:29;;;;;;;5.28;2.97;;;;;;;;;;5095923;28;20480;-68
2020/12/07 01:17:55;;;;;;;5.28;2.15;;;;;;;;;;5094993;28;20047;-65
2020/12/07 01:20:21;;;;;;;4.00;2.60;;;;;;;;;;5095973;28;20012;-68
2020/12/07 01:22:47;;;;;;;3.88;2.58;;;;;;;;;;5095908;28;20516;-68
2020/12/07 01:25:13;;;;;;;3.97;2.38;;;;;;;;;;5095931;28;20036;-66
2020/12/07 01:27:39;;;;;;;2.67;1.85;;;;;;;;;;5095753;28;20031;-65
2020/12/07 01:30:05;;;;;;;2.97;1.60;;;;;;;;;;5096339;28;20033;-66
2020/12/07 01:32:32;;;;;;;4.57;2.58;;;;;;;;;;5096050;28;20027;-66
2020/12/07 01:34:58;;;;;;;2.55;1.98;;;;;;;;;;5095363;28;20360;-66
2020/12/07 01:37:24;;;;;;;4.00;2.05;;;;;;;;;;5095416;28;20032;-66
2020/12/07 01:39:50;;;;;;;2.72;2.20;;;;;;;;;;5095214;28;20016;-66
2020/12/07 01:42:16;;;;;;;5.57;4.05;;;;;;;;;;5094376;28;20464;-66
2020/12/07 01:44:42;;;;;;;11.88;3.78;;;;;;;;;;5095716;28;20024;-65
2020/12/07 01:47:17;;;;;;;7.53;4.03;;;;;;;;;;5095255;28;20020;-67
2020/12/07 01:49:44;;;;;;;5.70;2.95;;;;;;;;;;5095710;28;20026;-67
2020/12/07 01:52:10;;;;;;;13.43;7.55;;;;;;;;;;5095260;28;20367;-65
2020/12/07 01:54:36;;;;;;;1.45;1.00;;;;;;;;;;5094946;28;20528;-65
2020/12/07 01:57:02;;;;;;;3.47;1.92;;;;;;;;;;5095374;28;20102;-65
2020/12/07 01:59:28;;;;;;;4.70;1.90;;;;;;;;;;5096006;28;20024;-67
2020/12/07 02:01:55;;;;;;;2.20;1.90;;;;;;;;;;5094813;28;20019;-66
2020/12/07 02:04:21;;;;;;;2.80;2.55;;;;;;;;;;5094084;28;20021;-67
2020/12/07 02:06:47;;;;;;;3.72;2.35;;;;;;;;;;5094978;28;20526;-65
2020/12/07 02:09:13;;;;;;;1.48;1.38;;;;;;;;;;5093692;28;20039;-65
2020/12/07 02:11:39;;;;;;;1.95;1.63;;;;;;;;;;5093667;28;20110;-65
2020/12/07 02:14:05;;;;;;;2.33;1.85;;;;;;;;;;5094849;28;20020;-67
2020/12/07 02:16:31;;;;;;;3.20;2.00;;;;;;;;;;5094842;28;20459;-65
2020/12/07 02:18:58;;;;;;;1.67;1.40;;;;;;;;;;5095083;28;20027;-66
2020/12/07 02:21:24;;;;;;;2.75;1.65;;;;;;;;;;5094363;28;20070;-68
2020/12/07 02:23:50;;;;;;;3.53;2.13;;;;;;;;;;5094138;28;20027;-67
2020/12/07 02:26:16;;;;;;;2.28;1.83;;;;;;;;;;5094720;28;20031;-67
2020/12/07 02:28:43;;;;;;;2.90;2.28;;;;;;;;;;5094240;28;20460;-67
2020/12/07 02:31:09;;;;;;;3.50;2.63;;;;;;;;;;5095050;28;20036;-68
2020/12/07 02:33:35;;;;;;;2.47;2.00;;;;;;;;;;5094546;28;20024;-66
2020/12/07 02:36:01;;;;;;;3.17;1.58;;;;;;;;;;5094725;28;20026;-67
2020/12/07 02:38:27;;;;;;;2.33;1.15;;;;;;;;;;5094761;28;20035;-68
2020/12/07 02:40:53;;;;;;;3.05;1.55;;;;;;;;;;5094061;28;20375;-65
2020/12/07 02:43:19;;;;;;;2.28;1.30;;;;;;;;;;5093084;28;20019;-64
2020/12/07 02:45:45;;;;;;;3.13;2.03;;;;;;;;;;5094935;28;20043;-64
2020/12/07 02:48:11;;;;;;;2.78;1.60;;;;;;;;;;5094575;28;20409;-64
2020/12/07 02:50:37;;;;;;;3.00;1.50;;;;;;;;;;5093897;28;20062;-66
2020/12/07 02:53:03;;;;;;;2.75;1.55;;;;;;;;;;5095070;28;20020;-65
2020/12/07 02:55:30;;;;;;;1.92;1.55;;;;;;;;;;5093206;28;20016;-64
2020/12/07 02:57:56;;;;;;;2.13;1.42;;;;;;;;;;5093602;28;20368;-65
2020/12/07 03:00:22;;;;;;;4.80;1.40;;;;;;;;;;5093089;28;20012;-67
2020/12/07 03:02:48;;;;;;;1.98;1.65;;;;;;;;;;5094591;28;20026;-67
2020/12/07 03:05:14;;;;;;;2.28;1.67;;;;;;;;;;5093704;28;20027;-66
2020/12/07 03:07:40;;;;;;;1.92;1.55;;;;;;;;;;5093937;28;20035;-66
2020/12/07 03:10:06;;;;;;;2.63;1.17;;;;;;;;;;5094243;28;20024;-65
2020/12/07 03:12:32;;;;;;;1.50;0.93;;;;;;;;;;5094029;28;20012;-68
2020/12/07 03:14:58;;;;;;;3.03;1.88;;;;;;;;;;5093713;28;20031;-68
2020/12/07 03:17:24;;;;;;;1.98;1.25;;;;;;;;;;5093888;28;20032;-67
2020/12/07 03:19:51;;;;;;;2.30;1.38;;;;;;;;;;5093542;28;20342;-66
2020/12/07 03:22:17;;;;;;;2.35;1.27;;;;;;;;;;5093850;28;20111;-65
2020/12/07 03:24:43;;;;;;;2.90;1.50;;;;;;;;;;5093240;28;20449;-65
2020/12/07 03:27:09;;;;;;;5.15;1.42;;;;;;;;;;5093936;28;20028;-67
2020/12/07 03:29:35;;;;;;;3.08;1.80;;;;;;;;;;5094820;28;20352;-64
2020/12/07 03:32:01;;;;;;;4.93;1.52;;;;;;;;;;5093455;28;20093;-67
2020/12/07 03:34:27;;;;;;;1.70;1.08;;;;;;;;;;5093718;28;20012;-66
2020/12/07 03:36:54;;;;;;;3.20;1.63;;;;;;;;;;5093947;28;20457;-67
2020/12/07 03:39:20;;;;;;;3.13;1.95;;;;;;;;;;5093808;28;20453;-67
2020/12/07 03:41:46;;;;;;;3.22;1.52;;;;;;;;;;5092076;28;20035;-66
2020/12/07 03:44:12;;;;;;;3.60;1.50;;;;;;;;;;5094147;28;20028;-66
2020/12/07 03:46:38;;;;;;;4.47;1.70;;;;;;;;;;5093567;28;20024;-64
2020/12/07 03:49:04;;;;;;;2.78;1.25;;;;;;;;;;5093764;28;20024;-65
2020/12/07 03:51:30;;;;;;;4.13;1.95;;;;;;;;;;5093290;28;20066;-65
2020/12/07 03:53:56;;;;;;;2.75;1.60;;;;;;;;;;5093568;28;20027;-64
2020/12/07 03:56:23;;;;;;;5.68;1.73;;;;;;;;;;5093750;28;20031;-67
2020/12/07 03:58:49;;;;;;;4.50;2.20;;;;;;;;;;5093699;28;20024;-67
2020/12/07 04:01:15;;;;;;;2.55;1.85;;;;;;;;;;5093350;28;20030;-65
2020/12/07 04:03:44;;;;;;;2.35;1.55;;;;;;;;;;5093441;28;20031;-65
2020/12/07 04:08:36;;;;;;;3.85;1.67;;;;;;;;;;5093266;28;20032;-66
2020/12/07 04:11:03;;;;;;;4.75;2.55;;;;;;;;;;5093620;28;20020;-67
2020/12/07 04:13:29;;;;;;;3.13;1.73;;;;;;;;;;5093438;28;20027;-65
2020/12/07 04:15:56;;;;;;;2.58;1.60;;;;;;;;;;5091956;28;20030;-65
2020/12/07 04:18:22;;;;;;;3.55;1.95;;;;;;;;;;5093336;28;20036;-67
2020/12/07 04:20:48;;;;;;;5.10;2.40;;;;;;;;;;5092932;28;20094;-66
2020/12/07 04:23:14;;;;;;;5.85;2.58;;;;;;;;;;5093843;28;20040;-67
2020/12/07 04:25:40;;;;;;;11.57;10.05;;;;;;;;;;5093500;28;20070;-66
2020/12/07 04:28:06;;;;;;;4.60;3.35;;;;;;;;;;5093181;28;20028;-66
2020/12/07 04:30:32;;;;;;;6.90;4.60;;;;;;;;;;5092494;28;20012;-65
2020/12/07 04:32:58;;;;;;;6.50;3.33;;;;;;;;;;5092816;28;20016;-67
2020/12/07 04:35:25;;;;;;;4.50;2.67;;;;;;;;;;5092116;28;20024;-65
2020/12/07 04:37:51;;;;;;;3.80;2.33;;;;;;;;;;5095400;28;20038;-64
2020/12/07 04:40:17;;;;;;;7.93;6.88;;;;;;;;;;5096476;28;20024;-63
2020/12/07 04:42:43;;;;;;;3.20;1.50;;;;;;;;;;5096584;28;20020;-63
2020/12/07 04:45:10;;;;;;;5.82;3.85;;;;;;;;;;5097234;28;20070;-66
2020/12/07 04:47:38;;;;;;;4.90;3.27;;;;;;;;;;5096399;28;20065;-66
2020/12/07 04:50:05;;;;;;;11.25;6.20;;;;;;;;;;5094946;28;20534;-66
2020/12/07 04:52:32;;;;;;;8.02;5.18;;;;;;;;;;5094989;28;20115;-63
2020/12/07 04:54:59;;;;;;;20.50;9.85;;;;;;;;;;5096042;28;20012;-66
2020/12/07 04:57:26;;;;;;;26.17;12.75;;;;;;;;;;5096022;28;20028;-65
2020/12/07 04:59:52;;;;;;;13.98;4.68;;;;;;;;;;5095766;28;20464;-64
2020/12/07 05:02:18;;;;;;;27.60;12.23;;;;;;;;;;5096606;28;20042;-63
2020/12/07 05:04:45;;;;;;;27.77;13.05;;;;;;;;;;5096476;28;20417;-64
2020/12/07 05:07:11;;;;;;;12.70;6.88;;;;;;;;;;5096043;28;20039;-66
2020/12/07 05:09:39;;;;;;;25.10;13.50;;;;;;;;;;5096471;28;20019;-66
2020/12/07 05:12:29;;;;;;;15.55;8.95;;;;;;;;;;5096217;28;20356;-65
2020/12/07 05:14:54;;;;;;;16.70;8.32;;;;;;;;;;5095546;28;20067;-63
2020/12/07 05:17:20;;;;;;;39.30;19.35;;;;;;;;;;5095244;28;20032;-65
2020/12/07 05:19:46;;;;;;;24.52;10.07;;;;;;;;;;5094305;28;20016;-64
2020/12/07 05:22:18;;;;;;;18.08;10.55;;;;;;;;;;5094163;28;20043;-65
2020/12/07 05:24:48;;;;;;;13.00;5.82;;;;;;;;;;5093885;28;20016;-64
2020/12/07 05:27:16;;;;;;;28.52;15.38;;;;;;;;;;5093865;28;20028;-66
2020/12/07 05:29:56;;;;;;;22.17;12.30;;;;;;;;;;5094145;28;20058;-65
2020/12/07 05:32:22;;;;;;;18.70;9.93;;;;;;;;;;5093894;28;20012;-64
2020/12/07 05:34:49;;;;;;;27.83;15.85;;;;;;;;;;5096533;28;20016;-66
2020/12/07 05:37:17;;;;;;;14.57;7.57;;;;;;;;;;5095330;28;20073;-66
2020/12/07 05:39:43;;;;;;;32.60;16.33;;;;;;;;;;5095216;28;20073;-66
2020/12/07 05:42:11;;;;;;;28.73;16.83;;;;;;;;;;5095536;28;20024;-66
2020/12/07 05:44:37;;;;;;;;;;;;;;;;;;5096449;28;20391;-65
2020/12/07 05:47:03;;;;;;;12.32;7.45;;;;;;;;;;5095894;28;19907;-63
2020/12/07 05:49:29;;;;;;;17.27;8.07;;;;;;;;;;5095080;28;20024;-64
2020/12/07 05:51:58;;;;;;;11.45;7.60;;;;;;;;;;5095040;28;20493;-64
2020/12/07 05:54:24;;;;;;;19.63;9.35;;;;;;;;;;5095626;28;20016;-64
2020/12/07 05:56:52;;;;;;;16.98;9.07;;;;;;;;;;5095777;28;20020;-64
2020/12/07 05:59:29;;;;;;;14.45;7.85;;;;;;;;;;5095291;28;20476;-66
2020/12/07 06:01:59;;;;;;;18.40;10.75;;;;;;;;;;5095792;28;20049;-66
2020/12/07 06:04:27;;;;;;;16.50;9.88;;;;;;;;;;5096365;28;20062;-65
2020/12/07 06:06:56;;;;;;;20.02;14.40;;;;;;;;;;5094775;28;20473;-63
2020/12/07 06:09:24;;;;;;;78.50;42.72;;;;;;;;;;5095355;28;20380;-66
2020/12/07 06:12:13;;;;;;;44.30;29.13;;;;;;;;;;5096086;28;20013;-65
2020/12/07 06:14:39;;;;;;;22.25;13.57;;;;;;;;;;5090065;28;20088;-65
2020/12/07 06:17:05;;;;;;;15.53;10.00;;;;;;;;;;5093887;28;20102;-67
2020/12/07 06:19:32;;;;;;;10.55;5.18;;;;;;;;;;5095389;28;20251;-68
2020/12/07 06:22:00;;;;;;;16.63;10.03;;;;;;;;;;5094872;28;20055;-64
2020/12/07 06:24:42;;;;;;;14.38;8.15;;;;;;;;;;5095050;28;20024;-63
2020/12/07 06:27:10;;;;;;;13.65;6.22;;;;;;;;;;5095150;28;20444;-65
2020/12/07 06:29:36;;;;;;;9.38;7.03;;;;;;;;;;5094845;28;20463;-64
2020/12/07 06:32:03;;;;;;;12.88;7.05;;;;;;;;;;5094620;28;20028;-63
2020/12/07 06:34:34;;;;;;;18.00;10.52;;;;;;;;;;5094615;28;20020;-63
2020/12/07 06:37:00;;;;;;;24.63;11.35;;;;;;;;;;5094541;28;20016;-66
2020/12/07 06:39:26;;;;;;;15.57;7.43;;;;;;;;;;5094491;28;20158;-68
2020/12/07 06:41:57;;;;;;;70.35;30.27;;;;;;;;;;5094221;28;20107;-68
2020/12/07 06:44:24;;;;;;;69.28;31.95;;;;;;;;;;5094611;28;20066;-67
2020/12/07 06:47:02;;;;;;;27.65;14.45;;;;;;;;;;5094619;28;20047;-69
2020/12/07 06:49:36;;;;;;;19.95;12.65;;;;;;;;;;5094214;28;20035;-67
2020/12/07 06:52:10;;;;;;;36.42;20.27;;;;;;;;;;5093519;28;20020;-67
2020/12/07 06:57:22;;;;;;;16.88;8.80;;;;;;;;;;5094517;28;20039;-66
2020/12/07 07:00:00;;;;;;;18.13;9.55;;;;;;;;;;5093151;28;20012;-66
2020/12/07 07:02:26;;;;;;;;;;;;;;;;;;5094355;28;20024;-68
2020/12/07 07:04:52;;;;;;;18.98;10.35;;;;;;;;;;5093136;28;20352;-66
2020/12/07 07:07:20;;;;;;;18.00;8.65;;;;;;;;;;5094511;28;20027;-67
2020/12/07 07:09:46;;;;;;;12.95;7.18;;;;;;;;;;5093727;28;20031;-66
2020/12/07 07:12:12;;;;;;;15.73;9.98;;;;;;;;;;5093870;28;20046;-66
2020/12/07 07:14:38;;;;;;;16.33;11.20;;;;;;;;;;5094201;28;20021;-66
2020/12/07 07:17:05;;;;;;;13.05;8.43;;;;;;;;;;5092560;28;20016;-70
2020/12/07 07:19:31;;;;;;;19.40;8.82;;;;;;;;;;5093893;28;20024;-69
2020/12/07 07:21:58;;;;;;;20.92;12.80;;;;;;;;;;5094162;28;20040;-67
2020/12/07 07:24:26;;;;;;;27.77;16.55;;;;;;;;;;5093815;28;20453;-67
2020/12/07 07:26:53;;;;;;;26.13;13.93;;;;;;;;;;5093677;28;20583;-67
2020/12/07 07:29:19;;;;;;;31.63;15.98;;;;;;;;;;5093166;28;20329;-65
2020/12/07 07:31:45;;;;;;;21.27;11.30;;;;;;;;;;5093732;28;20042;-67
2020/12/07 07:34:12;;;;;;;15.82;7.93;;;;;;;;;;5093974;28;20508;-67
2020/12/07 07:36:38;;;;;;;15.70;8.82;;;;;;;;;;5092148;28;20111;-66
2020/12/07 07:39:04;;;;;;;20.45;9.73;;;;;;;;;;5093901;28;20360;-69
2020/12/07 07:41:30;;;;;;;15.27;7.95;;;;;;;;;;5094165;28;20024;-69
2020/12/07 07:43:56;;;;;;;13.00;7.65;;;;;;;;;;5093853;28;20016;-67
2020/12/07 07:46:23;;;;;;;23.63;11.50;;;;;;;;;;5092371;28;20012;-71
2020/12/07 07:49:17;;;;;;;26.35;12.43;;;;;;;;;;5093992;28;20016;-67
2020/12/07 08:15:54;;;;;;;18.92;9.82;;;;;;;;;;5096990;28;20158;-64
2020/12/07 08:18:36;;;;;;;21.40;10.50;;;;;;;;;;5097478;28;20016;-64
2020/12/07 08:21:04;;;;;;;14.93;9.43;;;;;;;;;;5096896;28;20349;-65
2020/12/07 08:23:31;;;;;;;20.02;9.38;;;;;;;;;;5077227;28;20050;-66
2020/12/07 08:25:58;;;;;;;30.67;14.65;;;;;;;;;;5092654;28;20357;-65
2020/12/07 08:28:35;;;;;;;47.42;19.65;;;;;;;;;;5076910;28;20024;-64
2020/12/07 08:31:27;;;;;;;17.63;9.52;;;;;;;;;;5090108;28;20028;-65
2020/12/07 08:34:23;;;;;;;18.90;10.85;;;;;;;;;;5093061;28;20039;-63
2020/12/07 08:36:49;;;;;;;20.48;13.55;;;;;;;;;;5082972;28;20129;-64
2020/12/07 08:39:15;;;;;;;20.15;11.82;;;;;;;;;;5079258;28;20460;-65
2020/12/07 08:41:43;;;;;;;16.65;8.93;;;;;;;;;;5093879;28;20027;-66
2020/12/07 08:44:10;;;;;;;27.67;12.57;;;;;;;;;;5094596;28;20030;-66
2020/12/07 08:46:37;;;;;;;7.43;5.50;;;;;;;;;;5087021;28;20056;-64
2020/12/07 08:49:05;;;;;;;25.25;11.90;;;;;;;;;;5080984;28;20074;-64
2020/12/07 08:51:32;;;;;;;25.65;14.90;;;;;;;;;;5091093;28;20024;-65
2020/12/07 08:53:58;;;;;;;12.95;8.15;;;;;;;;;;5093028;28;20077;-63
2020/12/07 08:56:25;;;;;;;27.70;12.60;;;;;;;;;;5080125;28;20032;-63
2020/12/07 08:58:51;;;;;;;25.70;12.48;;;;;;;;;;5078043;28;20147;-65
2020/12/07 09:01:18;;;;;;;33.47;15.77;;;;;;;;;;5089661;28;20021;-64
2020/12/07 09:03:45;;;;;;;25.75;12.40;;;;;;;;;;5093382;28;20453;-66
2020/12/07 09:06:12;;;;;;;17.77;8.35;;;;;;;;;;5089770;28;20024;-66
2020/12/07 09:08:39;;;;;;;22.52;11.48;;;;;;;;;;5083452;28;20461;-66
2020/12/07 09:11:09;;;;;;;18.27;9.13;;;;;;;;;;5081187;28;20032;-65
2020/12/07 09:13:35;;;;;;;40.08;12.68;;;;;;;;;;5082658;28;20039;-65
2020/12/07 09:16:01;;;;;;;25.02;11.75;;;;;;;;;;5089349;28;20020;-63
2020/12/07 09:18:28;;;;;;;21.70;10.00;;;;;;;;;;5076202;28;20415;-66
2020/12/07 09:20:54;;;;;;;31.58;12.82;;;;;;;;;;5083295;28;20051;-65
2020/12/07 09:23:20;;;;;;;34.45;14.68;;;;;;;;;;5074556;28;20115;-64
2020/12/07 09:25:47;;;;;;;25.08;11.68;;;;;;;;;;5089409;28;20062;-66
2020/12/07 09:28:13;;;;;;;32.45;14.48;;;;;;;;;;5082248;28;20024;-64
2020/12/07 09:30:39;;;;;;;17.73;9.00;;;;;;;;;;5093351;28;20027;-65
2020/12/07 09:33:05;;;;;;;36.45;16.17;;;;;;;;;;5094177;28;20026;-65
2020/12/07 09:35:32;;;;;;;37.92;17.02;;;;;;;;;;5088450;28;20023;-64
2020/12/07 09:37:58;;;;;;;39.38;15.82;;;;;;;;;;5083813;28;20081;-65
2020/12/07 09:40:24;;;;;;;35.17;15.93;;;;;;;;;;5081574;28;20529;-66
2020/12/07 09:42:51;;;;;;;35.93;16.27;;;;;;;;;;5077612;28;20020;-66
2020/12/07 09:45:17;;;;;;;26.10;12.38;;;;;;;;;;5083789;28;20449;-66
2020/12/07 09:47:43;;;;;;;27.20;11.55;;;;;;;;;;5074267;28;20016;-64
2020/12/07 09:50:10;;;;;;;47.17;18.52;;;;;;;;;;5075004;28;20017;-65
2020/12/07 09:52:36;;;;;;;15.95;6.82;;;;;;;;;;5084256;28;20035;-64
2020/12/07 09:55:03;;;;;;;26.45;12.05;;;;;;;;;;5090279;28;20016;-66
2020/12/07 09:57:30;;;;;;;25.92;11.52;;;;;;;;;;5081481;28;20028;-64
2020/12/07 09:59:56;;;;;;;28.48;13.52;;;;;;;;;;5079944;28;20024;-65
2020/12/07 10:02:22;;;;;;;36.97;15.45;;;;;;;;;;5092593;28;20035;-65
2020/12/07 10:04:48;;;;;;;21.50;10.43;;;;;;;;;;5083709;28;20461;-64
2020/12/07 10:07:14;;;;;;;21.13;10.48;;;;;;;;;;5081119;28;20024;-63
2020/12/07 10:09:41;;;;;;;34.55;16.25;;;;;;;;;;5090264;28;20016;-64
2020/12/07 10:12:07;;;;;;;48.08;19.80;;;;;;;;;;5092954;28;20027;-65
2020/12/07 10:14:33;;;;;;;89.85;15.63;;;;;;;;;;5091442;28;20031;-65
2020/12/07 10:16:59;;;;;;;21.33;9.35;;;;;;;;;;5089783;28;20546;-66
2020/12/07 10:19:26;;;;;;;35.72;16.95;;;;;;;;;;5093831;28;20028;-64
2020/12/07 10:21:52;;;;;;;40.95;17.98;;;;;;;;;;5090411;28;20056;-67
2020/12/07 10:24:18;;;;;;;29.80;14.05;;;;;;;;;;5090307;28;20028;-66
2020/12/07 10:26:44;;;;;;;24.92;13.10;;;;;;;;;;5087730;28;20078;-67
2020/12/07 10:29:11;;;;;;;21.70;10.68;;;;;;;;;;5090492;28;20053;-65
2020/12/07 10:31:37;;;;;;;22.27;11.80;;;;;;;;;;5084731;28;20041;-66
2020/12/07 10:34:04;;;;;;;31.05;14.80;;;;;;;;;;5082116;28;20027;-65
2020/12/07 10:36:30;;;;;;;33.85;16.52;;;;;;;;;;5076395;28;20016;-66
2020/12/07 10:38:56;;;;;;;16.27;8.60;;;;;;;;;;5074697;28;20024;-64
2020/12/07 10:41:29;;;;;;;11.32;6.90;;;;;;;;;;5093046;28;20028;-65
2020/12/07 10:43:56;;;;;;;25.08;11.55;;;;;;;;;;5089897;28;20024;-65
2020/12/07 10:46:22;;;;;;;;;;;;;;;;;;5078309;28;20024;-65
2020/12/07 10:48:48;;;;;;;15.13;9.13;;;;;;;;;;5077853;28;19908;-63
2020/12/07 10:51:15;;;;;;;9.30;4.63;;;;;;;;;;5077421;28;20024;-66
2020/12/07 10:53:41;;;;;;;13.60;6.73;;;;;;;;;;5072502;28;20035;-64
2020/12/07 10:56:09;;;;;;;7.65;4.90;;;;;;;;;;5087294;28;20107;-65
2020/12/07 10:58:35;;;;;;;;;;;;;;;;;;5093523;28;20027;-64
2020/12/07 11:01:02;;;;;;;7.35;4.07;;;;;;;;;;5092558;28;19904;-68
2020/12/07 11:03:28;;;;;;;18.40;10.10;;;;;;;;;;5093378;28;20016;-67
2020/12/07 11:05:54;;;;;;;22.92;9.13;;;;;;;;;;5081795;28;20368;-64
2020/12/07 11:08:29;;;;;;;24.17;11.60;;;;;;;;;;5084090;28;20028;-65
2020/12/07 11:10:56;;;;;;;20.70;9.70;;;;;;;;;;5073716;28;20032;-65
2020/12/07 11:13:53;;;;;;;17.98;9.40;;;;;;;;;;5089546;28;20421;-66
2020/12/07 11:16:23;;;;;;;17.13;10.00;;;;;;;;;;5069982;28;20079;-64
2020/12/07 11:18:50;;;;;;;20.13;7.35;;;;;;;;;;5079535;28;20029;-66
2020/12/07 11:21:16;;;;;;;28.58;9.88;;;;;;;;;;5072993;28;20036;-67
2020/12/07 11:23:44;;;;;;;37.30;14.82;;;;;;;;;;5072930;28;20021;-67
2020/12/07 11:26:10;;;;;;;;;;;;;;;;;;5077034;28;20338;-67
2020/12/07 11:28:37;;;;;;;31.45;12.82;;;;;;;;;;5072787;28;19908;-67
2020/12/07 11:31:03;;;;;;;21.30;8.88;;;;;;;;;;5074368;28;20353;-65
2020/12/07 11:33:30;;;;;;;13.02;5.70;;;;;;;;;;5087546;28;20368;-66
2020/12/07 11:35:56;;;;;;;37.42;14.35;;;;;;;;;;5084167;28;20377;-64
2020/12/07 11:38:25;;;;;;;28.58;12.70;;;;;;;;;;5079281;28;20457;-63
2020/12/07 11:41:13;;;;;;;28.90;12.35;;;;;;;;;;5081456;28;20082;-66
2020/12/07 11:44:14;;;;;;;35.30;15.85;;;;;;;;;;5089602;28;20016;-65
2020/12/07 11:46:54;;;;;;;15.57;7.63;;;;;;;;;;5090443;28;20020;-65
2020/12/07 11:49:20;;;;;;;30.67;13.40;;;;;;;;;;5096451;28;20047;-66
2020/12/07 11:51:46;;;;;;;23.00;11.90;;;;;;;;;;5091648;28;20020;-66
2020/12/07 11:54:13;;;;;;;36.70;20.40;;;;;;;;;;5096852;28;20016;-67
2020/12/07 11:56:39;;;;;;;34.03;17.25;;;;;;;;;;5096726;28;20024;-68
2020/12/07 11:59:06;;;;;;;56.53;26.77;;;;;;;;;;5095014;28;20036;-66
2020/12/07 12:01:33;;;;;;;54.63;29.00;;;;;;;;;;5095374;28;20020;-67
2020/12/07 12:04:00;;;;;;;61.10;26.85;;;;;;;;;;5092598;28;20020;-66
2020/12/07 12:06:27;;;;;;;48.45;27.48;;;;;;;;;;5091472;28;20099;-67
2020/12/07 12:08:54;;;;;;;29.52;15.98;;;;;;;;;;5088099;28;20112;-66
2020/12/07 12:11:20;;;;;;;33.58;20.35;;;;;;;;;;5093519;28;20035;-65
2020/12/07 12:13:46;;;;;;;34.17;20.23;;;;;;;;;;5095112;28;20043;-67
2020/12/07 12:16:13;;;;;;;53.58;27.88;;;;;;;;;;5096072;28;20460;-66
2020/12/07 12:18:40;;;;;;;33.25;19.35;;;;;;;;;;5093865;28;20108;-66
2020/12/07 12:21:06;;;;;;;41.10;22.67;;;;;;;;;;5092465;28;20352;-64
2020/12/07 12:23:32;;;;;;;45.60;23.35;;;;;;;;;;5093206;28;20020;-65
2020/12/07 12:25:58;;;;;;;64.22;32.30;;;;;;;;;;5095274;28;20058;-66
2020/12/07 12:28:25;;;;;;;53.70;27.60;;;;;;;;;;5089440;28;20414;-68
2020/12/07 12:30:56;;;;;;;79.43;37.95;;;;;;;;;;5092742;28;20034;-70
2020/12/07 12:33:28;;;;;;;75.05;46.97;;;;;;;;;;5095020;28;20008;-68
2020/12/07 12:35:54;;;;;;;23.48;17.13;;;;;;;;;;5091767;28;20021;-67
2020/12/07 12:38:23;;;;;;;36.50;20.90;;;;;;;;;;5092689;28;20487;-67
2020/12/07 12:40:49;;;;;;;21.42;10.43;;;;;;;;;;5091734;28;20020;-65
2020/12/07 12:43:16;;;;;;;58.25;30.20;;;;;;;;;;5093560;28;20477;-66
2020/12/07 12:45:56;;;;;;;31.80;17.25;;;;;;;;;;5093988;28;20348;-70
2020/12/07 12:48:22;;;;;;;26.33;13.90;;;;;;;;;;5092927;28;20468;-69
2020/12/07 12:50:53;;;;;;;25.10;13.32;;;;;;;;;;5094645;28;20586;-70
2020/12/07 12:53:19;;;;;;;25.30;15.23;;;;;;;;;;5093031;28;20114;-68
2020/12/07 12:55:45;;;;;;;26.52;15.20;;;;;;;;;;5091653;28;20106;-67
2020/12/07 12:58:15;;;;;;;16.00;6.60;;;;;;;;;;5093156;28;20516;-71
2020/12/07 13:00:41;;;;;;;15.52;7.15;;;;;;;;;;5091760;28;20035;-68
2020/12/07 13:03:07;;;;;;;19.02;7.20;;;;;;;;;;5087190;28;20099;-65
2020/12/07 13:05:33;;;;;;;7.93;3.33;;;;;;;;;;5093708;28;20020;-67
2020/12/07 13:08:03;;;;;;;15.93;6.57;;;;;;;;;;5091487;28;20020;-68
2020/12/07 13:10:30;;;;;;;14.55;6.80;;;;;;;;;;5075338;28;20095;-69
2020/12/07 13:12:57;;;;;;;13.30;9.48;;;;;;;;;;5085246;28;20353;-68
2020/12/07 13:15:24;;;;;;;10.63;6.93;;;;;;;;;;5089097;28;20058;-66
2020/12/07 13:17:56;;;;;;;;;;;;;;;;;;5095114;28;20012;-66
2020/12/07 13:20:33;;;;;;;12.85;9.52;;;;;;;;;;5095086;28;20249;-68
2020/12/07 13:23:10;;;;;;;13.40;5.45;;;;;;;;;;5095446;28;20032;-67
2020/12/07 13:25:44;;;;;;;5.93;3.17;;;;;;;;;;5094132;28;20024;-66
2020/12/07 13:28:15;;;;;;;9.95;5.35;;;;;;;;;;5090024;28;20269;-66
2020/12/07 13:30:41;;;;;;;14.18;9.05;;;;;;;;;;5074905;28;20361;-64
2020/12/07 13:33:10;;;;;;;10.95;8.40;;;;;;;;;;5080888;28;20112;-64
2020/12/07 13:35:36;;;;;;;9.32;8.25;;;;;;;;;;5080823;28;20019;-67
2020/12/07 13:38:02;;;;;;;14.82;9.20;;;;;;;;;;5076788;28;20024;-65
2020/12/07 13:40:28;;;;;;;8.57;5.75;;;;;;;;;;5074889;28;20021;-66
2020/12/07 13:42:54;;;;;;;9.98;5.35;;;;;;;;;;5088710;28;20472;-65
2020/12/07 13:45:21;;;;;;;10.55;5.45;;;;;;;;;;5094312;28;20495;-67
2020/12/07 13:47:47;;;;;;;6.60;4.35;;;;;;;;;;5084455;28;20022;-68
2020/12/07 13:50:13;;;;;;;6.45;3.92;;;;;;;;;;5074653;28;20025;-65
2020/12/07 13:52:39;;;;;;;6.85;2.67;;;;;;;;;;5073784;28;20119;-67
2020/12/07 13:55:05;;;;;;;13.50;3.72;;;;;;;;;;5085207;28;20024;-65
2020/12/07 13:57:31;;;;;;;8.63;2.90;;;;;;;;;;5076512;28;20101;-65
2020/12/07 13:59:57;;;;;;;10.38;2.35;;;;;;;;;;5093832;28;20128;-66
2020/12/07 14:02:24;;;;;;;7.30;2.75;;;;;;;;;;5087094;28;20448;-66
2020/12/07 14:07:19;;;;;;;8.68;4.15;;;;;;;;;;5093076;28;20032;-66
2020/12/07 14:09:45;;;;;;;5.00;2.85;;;;;;;;;;5089767;28;20402;-65
2020/12/07 14:12:12;;;;;;;27.52;6.82;;;;;;;;;;5074983;28;20085;-66
2020/12/07 14:14:38;;;;;;;2.93;1.87;;;;;;;;;;5090075;28;20103;-65
2020/12/07 14:17:09;;;;;;;10.55;5.38;;;;;;;;;;5089363;28;20036;-63
2020/12/07 14:19:47;;;;;;;10.27;4.25;;;;;;;;;;5093273;28;20023;-67
2020/12/07 14:40:28;;;;;;;12.25;7.25;;;;;;;;;;5072730;28;20690;-65
2020/12/07 14:42:54;;;;;;;19.50;11.18;;;;;;;;;;5083659;28;20036;-66
2020/12/07 14:45:24;;;;;;;20.27;11.23;;;;;;;;;;5092067;28;20049;-64
2020/12/07 14:48:01;;;;;;;17.38;8.70;;;;;;;;;;5088763;28;20016;-65
2020/12/07 14:50:45;;;;;;;15.20;7.53;;;;;;;;;;5087598;28;20475;-65
2020/12/07 14:53:19;;;;;;;13.45;6.70;;;;;;;;;;5085737;28;20024;-64
2020/12/07 14:56:07;;;;;;;24.63;11.75;;;;;;;;;;5090700;28;20460;-63
2020/12/07 15:06:01;;;;;;;17.48;9.05;;;;;;;;;;5088226;28;20020;-64
2020/12/07 15:16:21;;;;;;;20.80;9.82;;;;;;;;;;5071529;28;20514;-64
2020/12/07 15:18:47;;;;;;;17.52;9.93;;;;;;;;;;5081799;28;20028;-66
2020/12/07 15:21:14;;;;;;;15.85;7.75;;;;;;;;;;5078869;28;20136;-65
2020/12/07 15:23:40;;;;;;;14.55;7.10;;;;;;;;;;5088710;28;20012;-66
2020/12/07 15:26:07;;;;;;;12.55;7.07;;;;;;;;;;5092717;28;20027;-67
2020/12/07 15:28:34;;;;;;;17.48;7.68;;;;;;;;;;5091629;28;20023;-65
2020/12/07 15:31:01;;;;;;;13.35;7.15;;;;;;;;;;5090079;28;20070;-66
2020/12/07 15:33:27;;;;;;;12.93;8.20;;;;;;;;;;5092425;28;20051;-65
2020/12/07 15:35:53;;;;;;;29.73;13.70;;;;;;;;;;5091990;28;20133;-66
2020/12/07 15:38:20;;;;;;;22.25;11.05;;;;;;;;;;5091363;28;20023;-65
2020/12/07 15:40:46;;;;;;;22.05;11.50;;;;;;;;;;5085807;28;20108;-67